West Hollywood, California
Current Conditions -  °F | °C
As of 11:51 PM on Monday 20 Oct 2014 (Local Time) from KSMO Reporting Station
Clear Clear  
Wind Chill: 64°   Ceiling: Unl
Heat Index: 64°   Visibility: 10mi
Dew Point: 60°   Wind: 3mph
Humidity: 87%   Direction: 50°NE
Pressure: 29.9"   Gusts: NA
Location:  34.09°N, 118.37°W
Report Text: KSMO 210651Z AUTO 05003KT 10SM CLR 18/16 A2990 RMK AO2 SLP123 T01780156
Loading
Personal Weather Stations






























Interactive Weather Map
Tropical Storm Tracking
New forecast layout! Learn more

10-Day Weather Forecast

Advertisements
Track Severe Weather on mobile